Time;durP1;ratioP1;P1;durP2;ratioP2;P2;SDS_P1;SDS_P2;PMS_P1;PMS_P2;Temp;Humidity;BMP_temperature;BMP_pressure;BME280_temperature;BME280_humidity;BME280_pressure;Samples;Min_cycle;Max_cycle;Signal;HPM_P1;HPM_P2
2022/10/13 00:00:32;;;;;;;22.40;10.43;;;;;;;;;;4991417;28;20430;-75
2022/10/13 00:02:59;;;;;;;21.05;11.27;;;;;;;;;;4992876;28;20505;-75
2022/10/13 00:05:26;;;;;;;21.83;9.68;;;;;;;;;;4992913;28;20382;-75
2022/10/13 00:07:52;;;;;;;26.42;10.10;;;;;;;;;;4992702;28;20026;-75
2022/10/13 00:10:18;;;;;;;21.73;10.27;;;;;;;;;;4991302;28;20061;-75
2022/10/13 00:12:44;;;;;;;23.17;11.50;;;;;;;;;;4992327;28;20473;-75
2022/10/13 00:15:10;;;;;;;21.58;9.98;;;;;;;;;;4977749;28;20035;-75
2022/10/13 00:17:36;;;;;;;26.88;9.65;;;;;;;;;;4978856;28;20393;-75
2022/10/13 00:20:03;;;;;;;18.42;9.57;;;;;;;;;;5001392;28;20062;-75
2022/10/13 00:22:29;;;;;;;18.00;9.82;;;;;;;;;;5015860;28;20465;-75
2022/10/13 00:24:55;;;;;;;20.83;9.93;;;;;;;;;;5015698;28;20113;-75
2022/10/13 00:27:21;;;;;;;18.17;9.93;;;;;;;;;;5015516;28;20034;-75
2022/10/13 00:29:47;;;;;;;20.50;9.50;;;;;;;;;;4998256;28;20041;-75
2022/10/13 00:32:14;;;;;;;20.05;10.68;;;;;;;;;;5015908;28;20121;-75
2022/10/13 00:34:40;;;;;;;29.48;11.43;;;;;;;;;;5015130;28;20050;-75
2022/10/13 00:37:06;;;;;;;27.45;10.38;;;;;;;;;;5015193;28;20030;-75
2022/10/13 00:39:32;;;;;;;21.35;10.43;;;;;;;;;;5015321;28;20022;-75
2022/10/13 00:41:59;;;;;;;22.05;10.75;;;;;;;;;;5015302;28;20022;-75
2022/10/13 00:44:43;;;;;;;19.75;10.38;;;;;;;;;;5015206;28;20076;-75
2022/10/13 00:47:09;;;;;;;22.70;10.93;;;;;;;;;;5015366;28;20022;-75
2022/10/13 00:49:36;;;;;;;22.55;10.48;;;;;;;;;;5015177;28;20034;-75
2022/10/13 00:52:02;;;;;;;28.10;11.52;;;;;;;;;;5015130;28;20030;-75
2022/10/13 00:54:28;;;;;;;25.73;11.25;;;;;;;;;;5014976;28;20424;-75
2022/10/13 00:56:55;;;;;;;21.65;11.13;;;;;;;;;;5015257;28;20142;-75
2022/10/13 00:59:23;;;;;;;21.85;10.93;;;;;;;;;;5003657;28;20033;-75
2022/10/13 01:01:50;;;;;;;25.38;11.35;;;;;;;;;;4995745;28;20142;-75
2022/10/13 01:04:17;;;;;;;23.65;10.55;;;;;;;;;;4978220;28;20030;-75
2022/10/13 01:06:43;;;;;;;24.48;11.20;;;;;;;;;;4995109;28;20037;-75
2022/10/13 01:09:09;;;;;;;22.25;11.40;;;;;;;;;;4999157;28;20032;-75
2022/10/13 01:11:47;;;;;;;31.13;12.10;;;;;;;;;;4997134;28;20030;-75
2022/10/13 01:14:19;;;;;;;21.90;10.73;;;;;;;;;;5014559;28;20022;-75
2022/10/13 01:16:52;;;;;;;25.30;11.73;;;;;;;;;;5014032;28;20225;-75
2022/10/13 01:19:18;;;;;;;20.73;11.02;;;;;;;;;;5014302;28;20072;-75
2022/10/13 01:21:54;;;;;;;24.85;11.77;;;;;;;;;;5013608;28;20030;-75
2022/10/13 01:24:20;;;;;;;24.27;12.15;;;;;;;;;;5014284;28;20025;-75
2022/10/13 01:26:49;;;;;;;25.05;11.20;;;;;;;;;;5012825;28;20515;-75
2022/10/13 01:29:34;;;;;;;23.52;11.27;;;;;;;;;;5014122;28;20021;-75
2022/10/13 01:32:18;;;;;;;25.73;11.65;;;;;;;;;;5014258;28;20849;-75
2022/10/13 01:34:50;;;;;;;21.50;11.23;;;;;;;;;;5014280;28;20129;-75
2022/10/13 01:37:22;;;;;;;28.45;13.00;;;;;;;;;;5014517;28;20076;-75
2022/10/13 01:39:48;;;;;;;26.23;11.80;;;;;;;;;;5014286;28;20062;-75
2022/10/13 01:42:17;;;;;;;24.70;12.15;;;;;;;;;;5014439;28;20396;-75
2022/10/13 01:44:46;;;;;;;21.10;11.23;;;;;;;;;;5014359;28;20022;-75
2022/10/13 01:47:15;;;;;;;24.05;12.38;;;;;;;;;;5014016;28;20034;-75
2022/10/13 01:49:42;;;;;;;21.75;11.63;;;;;;;;;;5014039;28;20049;-75
2022/10/13 01:52:10;;;;;;;22.38;11.68;;;;;;;;;;5013882;28;20065;-75
2022/10/13 01:54:36;;;;;;;23.77;11.70;;;;;;;;;;4996334;28;20030;-75
2022/10/13 01:57:02;;;;;;;27.95;11.50;;;;;;;;;;5013991;28;20026;-75
2022/10/13 01:59:30;;;;;;;25.75;12.50;;;;;;;;;;5001334;28;20049;-75
2022/10/13 02:02:19;;;;;;;22.40;10.85;;;;;;;;;;4994208;28;20026;-75
2022/10/13 02:04:52;;;;;;;23.38;11.18;;;;;;;;;;4971718;28;20030;-75
2022/10/13 02:07:37;;;;;;;20.83;11.90;;;;;;;;;;4977037;28;20454;-75
2022/10/13 02:10:17;;;;;;;21.90;11.73;;;;;;;;;;4994204;28;20496;-75
2022/10/13 02:12:48;;;;;;;22.83;10.43;;;;;;;;;;4993804;28;20359;-75
2022/10/13 02:15:17;;;;;;;20.48;11.30;;;;;;;;;;4993949;28;20023;-75
2022/10/13 02:17:43;;;;;;;22.67;10.68;;;;;;;;;;4993862;28;20113;-75
2022/10/13 02:20:09;;;;;;;22.95;12.07;;;;;;;;;;4982730;28;20021;-75
2022/10/13 02:22:41;;;;;;;30.30;11.65;;;;;;;;;;5013314;28;20042;-75
2022/10/13 02:25:07;;;;;;;26.08;10.65;;;;;;;;;;5013583;28;20133;-75
2022/10/13 02:27:33;;;;;;;22.08;10.75;;;;;;;;;;5013314;28;20099;-75
2022/10/13 02:29:59;;;;;;;26.15;11.70;;;;;;;;;;5013356;28;20037;-75
2022/10/13 02:32:26;;;;;;;22.10;10.60;;;;;;;;;;5013208;28;20025;-75
2022/10/13 02:34:52;;;;;;;18.60;10.10;;;;;;;;;;5013151;28;20136;-75
2022/10/13 02:37:18;;;;;;;27.05;11.27;;;;;;;;;;5013153;28;20033;-75
2022/10/13 02:39:44;;;;;;;26.75;11.32;;;;;;;;;;5013317;28;20026;-75
2022/10/13 02:42:10;;;;;;;17.95;10.95;;;;;;;;;;5013233;28;20025;-75
2022/10/13 02:44:36;;;;;;;20.77;11.18;;;;;;;;;;5013149;28;20049;-75
2022/10/13 02:47:02;;;;;;;21.85;10.73;;;;;;;;;;4995357;28;20029;-75
2022/10/13 02:49:28;;;;;;;23.67;10.77;;;;;;;;;;5013179;28;20026;-75
2022/10/13 02:51:54;;;;;;;20.52;11.32;;;;;;;;;;5012957;28;20092;-75
2022/10/13 02:54:20;;;;;;;20.60;10.80;;;;;;;;;;5013141;28;20414;-75
2022/10/13 02:56:47;;;;;;;23.65;11.77;;;;;;;;;;4995408;28;20026;-75
2022/10/13 02:59:13;;;;;;;18.67;10.40;;;;;;;;;;5002473;28;20027;-75
2022/10/13 03:01:41;;;;;;;24.27;10.80;;;;;;;;;;4993317;28;20027;-75
2022/10/13 03:04:10;;;;;;;21.33;11.70;;;;;;;;;;4993537;28;20041;-75
2022/10/13 03:06:36;;;;;;;23.52;10.90;;;;;;;;;;4992244;28;20034;-75
2022/10/13 03:09:03;;;;;;;23.30;11.30;;;;;;;;;;4992191;28;20068;-75
2022/10/13 03:11:29;;;;;;;21.23;10.68;;;;;;;;;;4993130;28;20381;-75
2022/10/13 03:13:55;;;;;;;23.13;11.52;;;;;;;;;;4993035;28;20056;-75
2022/10/13 03:16:22;;;;;;;24.98;11.38;;;;;;;;;;4993458;28;20034;-75
2022/10/13 03:18:48;;;;;;;24.27;11.20;;;;;;;;;;4959748;28;20031;-75
2022/10/13 03:21:14;;;;;;;24.08;12.10;;;;;;;;;;4991014;28;20030;-75
2022/10/13 03:23:40;;;;;;;26.73;11.50;;;;;;;;;;5012939;28;20417;-75
2022/10/13 03:26:06;;;;;;;24.45;11.85;;;;;;;;;;5012584;28;20084;-75
2022/10/13 03:28:33;;;;;;;23.35;11.70;;;;;;;;;;5012931;28;20030;-75
2022/10/13 03:30:59;;;;;;;25.67;11.65;;;;;;;;;;5012726;28;20040;-76
2022/10/13 03:33:25;;;;;;;21.17;11.52;;;;;;;;;;5012524;28;20022;-76
2022/10/13 03:35:51;;;;;;;22.48;12.15;;;;;;;;;;5012687;28;20068;-75
2022/10/13 03:38:17;;;;;;;20.45;12.43;;;;;;;;;;5012652;28;20132;-75
2022/10/13 03:40:43;;;;;;;25.48;11.32;;;;;;;;;;5012619;28;20022;-75
2022/10/13 03:43:09;;;;;;;23.10;11.40;;;;;;;;;;5012557;28;20026;-75
2022/10/13 03:45:36;;;;;;;25.38;12.18;;;;;;;;;;5012643;28;20113;-75
2022/10/13 03:48:02;;;;;;;25.35;11.75;;;;;;;;;;5012530;28;20037;-75
2022/10/13 03:50:28;;;;;;;21.42;11.55;;;;;;;;;;5015584;28;20087;-75
2022/10/13 03:52:54;;;;;;;31.23;12.18;;;;;;;;;;4998498;28;20037;-75
2022/10/13 03:55:20;;;;;;;23.50;12.48;;;;;;;;;;5016157;28;20018;-75
2022/10/13 03:57:46;;;;;;;25.10;11.80;;;;;;;;;;5016224;28;20527;-75
2022/10/13 04:00:12;;;;;;;23.00;11.68;;;;;;;;;;5016265;28;20420;-75
2022/10/13 04:02:38;;;;;;;19.23;11.45;;;;;;;;;;5016023;28;20061;-76
2022/10/13 04:05:04;;;;;;;26.52;13.07;;;;;;;;;;5016063;28;20034;-75
2022/10/13 04:07:30;;;;;;;23.88;11.07;;;;;;;;;;5016026;28;20034;-75
2022/10/13 04:09:56;;;;;;;24.88;12.00;;;;;;;;;;5015684;28;20022;-75
2022/10/13 04:12:22;;;;;;;24.10;11.68;;;;;;;;;;5016060;28;20042;-75
2022/10/13 04:14:48;;;;;;;27.33;12.48;;;;;;;;;;5015980;28;20384;-75
2022/10/13 04:17:14;;;;;;;29.40;11.60;;;;;;;;;;5016023;28;20430;-75
2022/10/13 04:19:41;;;;;;;23.30;11.82;;;;;;;;;;5015396;28;20416;-75
2022/10/13 04:22:07;;;;;;;24.35;12.85;;;;;;;;;;5015838;28;20030;-75
2022/10/13 04:24:33;;;;;;;25.58;11.82;;;;;;;;;;5015989;28;20023;-75
2022/10/13 04:26:59;;;;;;;26.27;12.43;;;;;;;;;;5015731;28;20026;-75
2022/10/13 04:29:25;;;;;;;27.65;12.13;;;;;;;;;;5015497;28;20061;-75
2022/10/13 04:31:51;;;;;;;26.42;13.13;;;;;;;;;;4998321;28;20036;-75
2022/10/13 04:34:17;;;;;;;33.10;12.73;;;;;;;;;;5015247;28;20054;-75
2022/10/13 04:36:43;;;;;;;22.30;12.02;;;;;;;;;;5015511;28;20026;-75
2022/10/13 04:39:09;;;;;;;24.30;10.85;;;;;;;;;;4998089;28;20469;-75
2022/10/13 04:41:35;;;;;;;25.73;12.60;;;;;;;;;;4997872;28;20026;-75
2022/10/13 04:44:01;;;;;;;24.60;11.80;;;;;;;;;;5015414;28;20034;-75
2022/10/13 04:46:28;;;;;;;30.38;13.18;;;;;;;;;;4997989;28;20030;-75
2022/10/13 04:48:54;;;;;;;24.50;12.52;;;;;;;;;;5015276;28;20034;-75
2022/10/13 04:51:21;;;;;;;26.65;11.60;;;;;;;;;;5015229;28;20699;-75
2022/10/13 04:53:48;;;;;;;20.42;11.80;;;;;;;;;;5015269;28;20360;-75
2022/10/13 04:56:15;;;;;;;28.63;12.45;;;;;;;;;;5015487;28;20022;-75
2022/10/13 04:58:42;;;;;;;28.83;12.25;;;;;;;;;;5015393;28;20496;-75
2022/10/13 05:01:11;;;;;;;27.33;12.48;;;;;;;;;;5015349;28;20060;-75
2022/10/13 05:03:37;;;;;;;27.67;12.27;;;;;;;;;;5015143;28;20073;-75
2022/10/13 05:06:03;;;;;;;29.08;12.32;;;;;;;;;;5015032;28;20049;-75
2022/10/13 05:08:31;;;;;;;29.90;12.05;;;;;;;;;;5015059;28;20053;-75
2022/10/13 05:11:01;;;;;;;24.13;11.80;;;;;;;;;;5014825;28;20033;-75
2022/10/13 05:13:28;;;;;;;25.45;12.40;;;;;;;;;;5014743;28;20080;-75
2022/10/13 05:15:54;;;;;;;22.83;12.20;;;;;;;;;;5014798;28;20018;-76
2022/10/13 05:18:20;;;;;;;25.35;13.02;;;;;;;;;;4997498;28;20472;-75
2022/10/13 05:20:46;;;;;;;30.08;12.55;;;;;;;;;;5014040;28;20084;-75
2022/10/13 05:23:13;;;;;;;27.25;12.35;;;;;;;;;;5014674;28;20030;-75
2022/10/13 05:25:39;;;;;;;29.10;13.50;;;;;;;;;;5014604;28;20108;-75
2022/10/13 05:28:06;;;;;;;32.28;13.27;;;;;;;;;;4996946;28;20038;-75
2022/10/13 05:30:33;;;;;;;24.15;11.77;;;;;;;;;;5014429;28;20461;-75
2022/10/13 05:32:59;;;;;;;31.40;12.77;;;;;;;;;;5014552;28;20026;-76
2022/10/13 05:35:25;;;;;;;31.05;12.98;;;;;;;;;;5014372;28;20112;-76
2022/10/13 05:37:51;;;;;;;28.83;12.90;;;;;;;;;;5014137;28;20102;-76
2022/10/13 05:40:20;;;;;;;27.17;12.57;;;;;;;;;;5014310;28;20029;-76
2022/10/13 05:42:46;;;;;;;22.67;12.00;;;;;;;;;;5014279;28;20030;-75
2022/10/13 05:45:12;;;;;;;26.77;11.93;;;;;;;;;;5014106;28;20025;-76
2022/10/13 05:47:38;;;;;;;26.70;12.38;;;;;;;;;;5013892;28;20033;-75
2022/10/13 05:50:04;;;;;;;26.85;12.18;;;;;;;;;;5014099;28;20030;-76
2022/10/13 05:52:31;;;;;;;28.00;12.48;;;;;;;;;;5013875;28;20026;-76
2022/10/13 05:54:59;;;;;;;29.73;12.20;;;;;;;;;;5013853;28;20033;-75
2022/10/13 05:57:29;;;;;;;31.15;13.45;;;;;;;;;;5013741;28;20033;-76
2022/10/13 05:59:57;;;;;;;25.15;13.13;;;;;;;;;;5013819;28;20465;-76
2022/10/13 06:02:26;;;;;;;24.55;12.50;;;;;;;;;;5014074;28;20080;-75
2022/10/13 06:04:54;;;;;;;24.27;13.25;;;;;;;;;;5013781;28;20037;-76
2022/10/13 06:07:20;;;;;;;28.15;12.02;;;;;;;;;;5013615;28;20829;-75
2022/10/13 06:09:47;;;;;;;27.73;13.65;;;;;;;;;;5013577;28;20037;-75
2022/10/13 06:12:13;;;;;;;28.33;12.27;;;;;;;;;;5013244;28;20457;-75
2022/10/13 06:14:39;;;;;;;26.80;13.07;;;;;;;;;;5013395;28;20022;-75
2022/10/13 06:17:05;;;;;;;26.30;12.43;;;;;;;;;;5013564;28;20037;-76
2022/10/13 06:19:32;;;;;;;25.70;13.13;;;;;;;;;;5013314;28;20669;-76
2022/10/13 06:21:58;;;;;;;25.42;13.38;;;;;;;;;;5013324;28;20022;-76
2022/10/13 06:24:24;;;;;;;23.35;12.52;;;;;;;;;;5013062;28;20587;-76
2022/10/13 06:26:50;;;;;;;26.95;12.85;;;;;;;;;;5013359;28;20480;-76
2022/10/13 06:29:16;;;;;;;31.63;13.15;;;;;;;;;;4995828;28;20030;-76
2022/10/13 06:31:42;;;;;;;29.00;12.43;;;;;;;;;;5013250;28;20483;-76
2022/10/13 06:34:08;;;;;;;32.75;14.18;;;;;;;;;;5009615;28;20133;-76
2022/10/13 06:36:35;;;;;;;34.92;13.57;;;;;;;;;;4999290;28;20045;-76
2022/10/13 06:39:01;;;;;;;27.05;12.45;;;;;;;;;;4999723;28;20053;-76
2022/10/13 06:41:27;;;;;;;25.95;13.25;;;;;;;;;;5012924;28;20417;-76
2022/10/13 06:43:53;;;;;;;30.67;12.57;;;;;;;;;;5012846;28;20038;-76
2022/10/13 06:46:19;;;;;;;25.85;12.02;;;;;;;;;;4990134;28;20030;-76
2022/10/13 06:48:46;;;;;;;24.83;13.68;;;;;;;;;;5007569;28;20105;-76
2022/10/13 06:51:12;;;;;;;27.90;14.02;;;;;;;;;;5002246;28;20026;-76
2022/10/13 06:53:38;;;;;;;30.63;14.60;;;;;;;;;;5006629;28;20449;-76
2022/10/13 06:56:05;;;;;;;34.45;14.10;;;;;;;;;;5012901;28;20026;-76
2022/10/13 06:58:32;;;;;;;34.25;15.52;;;;;;;;;;5007260;28;20481;-76
2022/10/13 07:00:58;;;;;;;30.80;12.82;;;;;;;;;;5007390;28;20037;-76
2022/10/13 07:03:24;;;;;;;25.17;13.48;;;;;;;;;;5012918;28;20049;-76
2022/10/13 07:05:51;;;;;;;29.42;13.50;;;;;;;;;;5012805;28;20032;-75
2022/10/13 07:08:17;;;;;;;26.80;13.52;;;;;;;;;;5012901;28;20505;-76
2022/10/13 07:10:44;;;;;;;30.30;13.10;;;;;;;;;;4994933;28;20200;-76
2022/10/13 07:13:10;;;;;;;28.55;13.27;;;;;;;;;;4992917;28;20038;-75
2022/10/13 07:15:40;;;;;;;26.27;12.90;;;;;;;;;;4993305;28;20034;-76
2022/10/13 07:18:06;;;;;;;30.40;13.82;;;;;;;;;;5002673;28;20045;-76
2022/10/13 07:20:32;;;;;;;24.77;14.40;;;;;;;;;;5000445;28;20069;-76
2022/10/13 07:22:58;;;;;;;28.75;12.98;;;;;;;;;;4987900;28;20369;-76
2022/10/13 07:25:24;;;;;;;33.35;15.35;;;;;;;;;;5016157;28;20026;-75
2022/10/13 07:27:50;;;;;;;34.55;14.73;;;;;;;;;;5016779;28;20146;-75
2022/10/13 07:30:17;;;;;;;32.25;14.02;;;;;;;;;;5016766;28;20531;-76
2022/10/13 07:32:43;;;;;;;30.70;14.00;;;;;;;;;;5016686;28;20053;-75
2022/10/13 07:35:09;;;;;;;33.22;12.95;;;;;;;;;;5016346;28;20046;-76
2022/10/13 07:37:36;;;;;;;30.42;14.43;;;;;;;;;;5016542;28;20033;-75
2022/10/13 07:40:02;;;;;;;32.33;13.95;;;;;;;;;;5016418;28;20130;-75
2022/10/13 07:42:28;;;;;;;34.75;15.05;;;;;;;;;;5016304;28;20544;-81
2022/10/13 07:44:54;;;;;;;31.05;14.35;;;;;;;;;;5004859;28;20145;-75
2022/10/13 07:47:20;;;;;;;35.85;16.60;;;;;;;;;;4995163;28;20107;-75
2022/10/13 07:49:46;;;;;;;32.50;15.88;;;;;;;;;;5030498;28;20034;-75
2022/10/13 07:52:12;;;;;;;27.48;14.18;;;;;;;;;;5013305;28;20026;-75
2022/10/13 07:54:38;;;;;;;36.70;16.80;;;;;;;;;;5006748;28;20026;-75
2022/10/13 07:57:04;;;;;;;30.17;16.23;;;;;;;;;;5008848;28;20026;-76
2022/10/13 07:59:33;;;;;;;34.50;17.13;;;;;;;;;;4995314;28;20065;-75
2022/10/13 08:02:00;;;;;;;39.03;17.50;;;;;;;;;;4996646;28;20037;-75
2022/10/13 08:04:30;;;;;;;32.50;16.45;;;;;;;;;;4996504;28;20030;-75
2022/10/13 08:06:57;;;;;;;38.10;19.23;;;;;;;;;;4996329;28;20033;-75
2022/10/13 08:09:24;;;;;;;34.85;18.38;;;;;;;;;;4995119;28;20043;-75
2022/10/13 08:11:50;;;;;;;46.65;20.58;;;;;;;;;;4996317;28;20113;-75
2022/10/13 08:14:16;;;;;;;41.10;21.42;;;;;;;;;;4996321;28;20085;-75
2022/10/13 08:16:44;;;;;;;39.45;20.65;;;;;;;;;;4996125;28;20022;-75
2022/10/13 08:19:11;;;;;;;42.17;21.17;;;;;;;;;;4995866;28;20041;-75
2022/10/13 08:21:37;;;;;;;46.42;21.35;;;;;;;;;;5014483;28;20022;-76
2022/10/13 08:24:04;;;;;;;35.03;19.73;;;;;;;;;;5015498;28;20453;-75
2022/10/13 08:26:30;;;;;;;32.42;18.15;;;;;;;;;;5015216;28;20477;-75
2022/10/13 08:28:56;;;;;;;36.95;20.25;;;;;;;;;;5015392;28;20061;-75
2022/10/13 08:31:22;;;;;;;34.40;20.90;;;;;;;;;;5015081;28;20037;-75
2022/10/13 08:33:49;;;;;;;39.03;21.20;;;;;;;;;;5014818;28;20026;-75
2022/10/13 08:36:16;;;;;;;42.88;20.92;;;;;;;;;;5014937;28;20049;-75
2022/10/13 08:38:42;;;;;;;34.35;18.80;;;;;;;;;;5015009;28;20026;-75
2022/10/13 08:41:16;;;;;;;34.58;18.45;;;;;;;;;;5015272;28;20022;-75
2022/10/13 08:43:45;;;;;;;42.80;18.83;;;;;;;;;;5015546;28;20423;-75
2022/10/13 08:46:12;;;;;;;37.95;18.88;;;;;;;;;;5015447;28;20096;-75
2022/10/13 08:48:40;;;;;;;38.00;18.92;;;;;;;;;;5015230;28;20037;-76
2022/10/13 08:51:07;;;;;;;36.17;18.40;;;;;;;;;;5015222;28;20022;-76
2022/10/13 08:53:34;;;;;;;34.42;19.13;;;;;;;;;;5015304;28;20025;-76
2022/10/13 08:56:02;;;;;;;34.13;18.45;;;;;;;;;;5013361;28;20026;-75
2022/10/13 08:58:30;;;;;;;35.53;17.75;;;;;;;;;;4998276;28;20053;-75
2022/10/13 09:01:08;;;;;;;30.25;17.20;;;;;;;;;;4995454;28;20030;-75
2022/10/13 09:03:40;;;;;;;28.70;15.48;;;;;;;;;;4995461;28;20034;-75
2022/10/13 09:06:18;;;;;;;31.80;16.50;;;;;;;;;;4995666;28;20421;-75
2022/10/13 09:08:55;;;;;;;34.75;17.23;;;;;;;;;;4998327;28;20030;-75
2022/10/13 09:11:21;;;;;;;25.23;14.43;;;;;;;;;;4997527;28;20029;-75
2022/10/13 09:13:47;;;;;;;31.50;15.23;;;;;;;;;;4997145;28;20101;-75
2022/10/13 09:16:14;;;;;;;26.30;13.88;;;;;;;;;;5015195;28;20385;-75
2022/10/13 09:18:40;;;;;;;27.98;14.18;;;;;;;;;;4997125;28;20022;-75
2022/10/13 09:21:09;;;;;;;24.65;14.05;;;;;;;;;;4993702;28;20034;-75
2022/10/13 09:23:35;;;;;;;24.80;13.13;;;;;;;;;;4993848;28;20473;-75
2022/10/13 09:26:07;;;;;;;27.08;13.07;;;;;;;;;;4995208;28;20136;-75
2022/10/13 09:28:33;;;;;;;25.52;12.82;;;;;;;;;;4995128;28;20381;-75
2022/10/13 09:31:13;;;;;;;28.73;12.65;;;;;;;;;;4994901;28;20041;-75
2022/10/13 09:33:39;;;;;;;26.42;11.98;;;;;;;;;;4996694;28;20022;-75
2022/10/13 09:36:06;;;;;;;30.58;12.85;;;;;;;;;;4977559;28;20026;-75
2022/10/13 09:38:33;;;;;;;21.52;12.02;;;;;;;;;;4994912;28;20089;-75
2022/10/13 09:41:04;;;;;;;29.80;12.68;;;;;;;;;;4994967;28;20076;-75
2022/10/13 09:43:30;;;;;;;24.55;12.65;;;;;;;;;;5011649;28;20057;-75
2022/10/13 09:45:57;;;;;;;24.55;13.35;;;;;;;;;;5013771;28;20088;-75
2022/10/13 09:48:25;;;;;;;24.75;11.50;;;;;;;;;;5013436;28;20038;-75
2022/10/13 09:50:53;;;;;;;27.50;13.23;;;;;;;;;;5002859;28;20508;-76
2022/10/13 09:53:19;;;;;;;24.65;12.40;;;;;;;;;;5007631;28;21924;-75
2022/10/13 09:55:48;;;;;;;24.58;11.82;;;;;;;;;;5014256;28;20465;-75
2022/10/13 09:58:29;;;;;;;27.75;12.32;;;;;;;;;;5007744;28;20034;-75
2022/10/13 10:00:57;;;;;;;24.77;11.38;;;;;;;;;;4967374;28;20057;-76
2022/10/13 10:03:23;;;;;;;26.50;12.57;;;;;;;;;;5013960;28;20026;-75
2022/10/13 10:05:54;;;;;;;28.33;11.88;;;;;;;;;;5014001;28;20030;-75
2022/10/13 10:08:20;;;;;;;22.90;11.77;;;;;;;;;;4981259;28;20374;-75
2022/10/13 10:10:46;;;;;;;24.40;11.80;;;;;;;;;;4996576;28;20492;-75
2022/10/13 10:13:13;;;;;;;36.10;13.18;;;;;;;;;;4996413;28;20037;-77
2022/10/13 10:15:48;;;;;;;25.77;11.88;;;;;;;;;;5009209;28;20014;-78
2022/10/13 10:18:17;;;;;;;23.58;12.18;;;;;;;;;;5013666;28;20022;-77
2022/10/13 10:20:53;;;;;;;28.83;12.45;;;;;;;;;;5013158;28;20072;-75
2022/10/13 10:23:28;;;;;;;28.65;12.43;;;;;;;;;;5013532;28;20029;-75
2022/10/13 10:26:01;;;;;;;27.83;12.73;;;;;;;;;;5013630;28;20067;-76
2022/10/13 10:28:33;;;;;;;22.05;12.63;;;;;;;;;;4995805;28;20030;-75
2022/10/13 10:31:18;;;;;;;20.92;11.32;;;;;;;;;;5003954;28;20030;-76
2022/10/13 10:34:02;;;;;;;24.42;11.57;;;;;;;;;;5000036;28;20077;-75
2022/10/13 10:36:44;;;;;;;25.73;11.57;;;;;;;;;;5013349;28;20042;-75
2022/10/13 10:39:29;;;;;;;30.00;13.75;;;;;;;;;;5013508;28;20400;-75
2022/10/13 10:42:03;;;;;;;25.48;13.07;;;;;;;;;;5010139;28;20022;-75
2022/10/13 10:44:37;;;;;;;28.30;12.38;;;;;;;;;;5005901;28;20418;-75
2022/10/13 10:47:10;;;;;;;30.05;11.27;;;;;;;;;;5007913;28;20088;-75
2022/10/13 10:49:38;;;;;;;25.85;12.13;;;;;;;;;;5013143;28;21866;-75
2022/10/13 10:52:09;;;;;;;24.83;11.35;;;;;;;;;;5013239;28;20030;-75
2022/10/13 10:54:44;;;;;;;29.38;12.43;;;;;;;;;;4999007;28;20042;-75
2022/10/13 10:57:31;;;;;;;26.20;12.35;;;;;;;;;;4998273;28;20416;-75
2022/10/13 11:00:13;;;;;;;27.85;12.60;;;;;;;;;;5002214;28;20445;-75
2022/10/13 11:02:57;;;;;;;30.90;11.88;;;;;;;;;;5004433;28;20453;-75
2022/10/13 11:05:23;;;;;;;24.88;12.77;;;;;;;;;;5010079;28;20088;-74
2022/10/13 11:07:49;;;;;;;27.13;12.25;;;;;;;;;;5008593;28;20387;-75
2022/10/13 11:10:15;;;;;;;29.33;13.38;;;;;;;;;;5008666;28;20034;-77
2022/10/13 11:12:46;;;;;;;30.10;13.15;;;;;;;;;;5012682;28;20519;-77
2022/10/13 11:15:15;;;;;;;25.45;12.18;;;;;;;;;;5012455;28;20022;-78
2022/10/13 11:17:42;;;;;;;26.88;12.85;;;;;;;;;;5012355;28;20017;-77
2022/10/13 11:20:17;;;;;;;27.02;12.05;;;;;;;;;;5008015;28;20021;-76
2022/10/13 11:23:02;;;;;;;24.38;12.98;;;;;;;;;;4997355;28;20080;-78
2022/10/13 11:25:40;;;;;;;23.98;12.35;;;;;;;;;;5005319;28;20106;-75
2022/10/13 11:28:21;;;;;;;30.73;12.48;;;;;;;;;;4993213;28;20026;-75
2022/10/13 11:30:49;;;;;;;30.65;12.45;;;;;;;;;;4993119;28;20084;-75
2022/10/13 11:33:33;;;;;;;25.88;12.70;;;;;;;;;;4993080;28;20307;-75
2022/10/13 11:36:18;;;;;;;26.35;12.63;;;;;;;;;;4992786;28;20046;-75
2022/10/13 11:38:48;;;;;;;23.48;12.40;;;;;;;;;;4993103;28;20030;-76
2022/10/13 11:41:27;;;;;;;25.02;13.02;;;;;;;;;;4991909;28;20065;-75
2022/10/13 11:43:53;;;;;;;30.92;13.38;;;;;;;;;;4991714;28;20572;-75
2022/10/13 11:46:28;;;;;;;27.50;12.18;;;;;;;;;;4992997;28;20057;-75
2022/10/13 11:49:03;;;;;;;23.83;12.85;;;;;;;;;;4993155;28;20030;-75
2022/10/13 11:51:31;;;;;;;25.92;13.10;;;;;;;;;;4992914;28;20385;-75
2022/10/13 11:54:16;;;;;;;24.35;12.65;;;;;;;;;;4992786;28;20126;-75
2022/10/13 11:56:50;;;;;;;22.67;11.45;;;;;;;;;;4992947;28;20073;-75
2022/10/13 11:59:22;;;;;;;27.20;11.02;;;;;;;;;;4992857;28;20018;-75
2022/10/13 12:01:52;;;;;;;24.13;11.98;;;;;;;;;;4992768;28;20026;-75
2022/10/13 12:04:20;;;;;;;21.42;11.20;;;;;;;;;;4992701;28;20077;-75
2022/10/13 12:06:53;;;;;;;26.90;11.93;;;;;;;;;;4992558;28;20235;-75
2022/10/13 12:09:20;;;;;;;25.05;11.43;;;;;;;;;;4992500;28;20370;-75
2022/10/13 12:11:46;;;;;;;23.55;11.48;;;;;;;;;;4996062;28;20485;-75
2022/10/13 12:14:36;;;;;;;25.90;11.50;;;;;;;;;;4996500;28;20034;-75
2022/10/13 12:17:02;;;;;;;23.58;10.50;;;;;;;;;;4990887;28;20034;-75
2022/10/13 12:19:29;;;;;;;20.40;10.50;;;;;;;;;;4999010;28;20022;-75
2022/10/13 12:21:57;;;;;;;26.75;11.68;;;;;;;;;;5016178;28;20081;-75
2022/10/13 12:24:24;;;;;;;20.63;10.55;;;;;;;;;;5015855;28;20029;-75
2022/10/13 12:26:51;;;;;;;24.15;10.88;;;;;;;;;;5015771;28;20468;-75
2022/10/13 12:29:17;;;;;;;25.98;11.80;;;;;;;;;;5015730;28;20037;-75
2022/10/13 12:31:52;;;;;;;24.23;12.23;;;;;;;;;;5015863;28;20045;-75
2022/10/13 12:34:33;;;;;;;30.30;14.05;;;;;;;;;;5015536;28;20045;-75
2022/10/13 12:37:04;;;;;;;24.20;13.80;;;;;;;;;;5015536;28;20076;-75
2022/10/13 12:39:31;;;;;;;28.73;13.13;;;;;;;;;;5015487;28;20026;-75
2022/10/13 12:41:57;;;;;;;31.23;12.57;;;;;;;;;;5015382;28;20018;-75
2022/10/13 12:44:25;;;;;;;27.40;13.35;;;;;;;;;;4997428;28;20033;-76
2022/10/13 12:46:57;;;;;;;27.50;14.52;;;;;;;;;;5015413;28;20025;-77
2022/10/13 12:49:28;;;;;;;30.42;14.73;;;;;;;;;;4997482;28;20088;-76
2022/10/13 12:51:57;;;;;;;25.88;13.50;;;;;;;;;;5015226;28;20034;-76
2022/10/13 12:54:26;;;;;;;30.80;15.10;;;;;;;;;;5015435;28;20033;-76
2022/10/13 12:56:54;;;;;;;27.35;14.30;;;;;;;;;;4989404;28;20539;-76
2022/10/13 12:59:21;;;;;;;31.02;15.05;;;;;;;;;;5009619;28;20484;-76
2022/10/13 13:01:54;;;;;;;32.70;16.20;;;;;;;;;;4981300;28;20543;-76
2022/10/13 13:04:20;;;;;;;31.70;16.02;;;;;;;;;;5005134;28;20033;-76
2022/10/13 13:06:56;;;;;;;34.03;15.07;;;;;;;;;;5014864;28;20025;-76
2022/10/13 13:09:22;;;;;;;26.95;15.75;;;;;;;;;;5009973;28;20388;-75
2022/10/13 13:11:48;;;;;;;32.28;16.02;;;;;;;;;;5003310;28;20121;-77
2022/10/13 13:14:21;;;;;;;29.20;16.25;;;;;;;;;;5007611;28;20053;-78
2022/10/13 13:17:08;;;;;;;29.45;16.63;;;;;;;;;;4986541;28;20037;-77
2022/10/13 13:19:35;;;;;;;28.05;15.40;;;;;;;;;;5009973;28;20023;-78
2022/10/13 13:22:02;;;;;;;35.47;15.68;;;;;;;;;;5001836;28;20022;-78
2022/10/13 13:24:28;;;;;;;28.95;15.88;;;;;;;;;;5023723;28;20396;-78
2022/10/13 13:26:55;;;;;;;32.25;17.15;;;;;;;;;;5026212;28;20025;-78
2022/10/13 13:29:21;;;;;;;34.90;17.85;;;;;;;;;;5034441;28;20060;-78
2022/10/13 13:31:47;;;;;;;31.75;16.50;;;;;;;;;;5019980;28;20062;-78
2022/10/13 13:34:13;;;;;;;29.13;15.82;;;;;;;;;;5014174;28;20046;-78
2022/10/13 13:36:39;;;;;;;26.98;15.60;;;;;;;;;;5014508;28;20426;-78
2022/10/13 13:39:10;;;;;;;31.63;17.35;;;;;;;;;;5014460;28;20094;-78
2022/10/13 13:41:36;;;;;;;33.85;17.00;;;;;;;;;;5014211;28;20030;-78
2022/10/13 13:44:02;;;;;;;30.30;16.77;;;;;;;;;;5014205;28;20033;-77
2022/10/13 13:46:31;;;;;;;35.85;16.63;;;;;;;;;;4996620;28;20030;-78
2022/10/13 13:48:57;;;;;;;30.52;16.85;;;;;;;;;;5015703;28;20034;-78
2022/10/13 13:51:23;;;;;;;32.25;16.00;;;;;;;;;;5033284;28;20033;-79
2022/10/13 13:53:49;;;;;;;35.90;16.42;;;;;;;;;;5033254;28;20033;-77
2022/10/13 13:56:17;;;;;;;34.00;16.13;;;;;;;;;;5015580;28;20107;-79
2022/10/13 13:58:44;;;;;;;34.33;16.48;;;;;;;;;;5024699;28;20076;-79
2022/10/13 14:01:10;;;;;;;38.28;16.50;;;;;;;;;;5013002;28;20036;-79
2022/10/13 14:03:36;;;;;;;28.00;15.98;;;;;;;;;;5013261;28;20696;-75
2022/10/13 14:06:03;;;;;;;32.45;15.82;;;;;;;;;;5005755;28;20061;-75
2022/10/13 14:08:33;;;;;;;30.40;15.80;;;;;;;;;;4993381;28;20046;-76
2022/10/13 14:10:59;;;;;;;34.90;17.63;;;;;;;;;;4993365;28;20050;-75
2022/10/13 14:13:25;;;;;;;31.48;15.93;;;;;;;;;;4993112;28;20362;-75
2022/10/13 14:15:57;;;;;;;27.40;15.05;;;;;;;;;;4997073;28;20030;-75
2022/10/13 14:18:24;;;;;;;33.25;15.68;;;;;;;;;;4989992;28;20030;-75
2022/10/13 14:20:50;;;;;;;27.70;15.32;;;;;;;;;;4998215;28;20354;-74
2022/10/13 14:23:16;;;;;;;30.15;14.00;;;;;;;;;;4991943;28;20237;-74